Time;durP1;ratioP1;P1;durP2;ratioP2;P2;SDS_P1;SDS_P2;PMS_P1;PMS_P2;Temp;Humidity;BMP_temperature;BMP_pressure;BME280_temperature;BME280_humidity;BME280_pressure;Samples;Min_cycle;Max_cycle;Signal;HPM_P1;HPM_P2
2022/02/22 00:00:18;;;;;;;8.97;4.07;;;9.00;99.90;;;;;;5051439;28;21022;-74
2022/02/22 00:03:08;;;;;;;18.17;3.90;;;9.00;99.90;;;;;;5050154;28;20407;-73
2022/02/22 00:05:34;;;;;;;16.57;4.33;;;9.00;99.90;;;;;;5051566;28;20428;-69
2022/02/22 00:08:00;;;;;;;6.30;3.30;;;9.00;99.90;;;;;;5051867;28;20209;-69
2022/02/22 00:10:26;;;;;;;15.77;4.43;;;9.00;99.90;;;;;;5034289;28;20179;-73
2022/02/22 00:12:51;;;;;;;14.30;4.80;;;9.00;99.90;;;;;;5050914;28;20177;-69
2022/02/22 00:15:17;;;;;;;11.20;4.43;;;9.00;99.90;;;;;;5052148;28;20185;-71
2022/02/22 00:17:43;;;;;;;16.27;4.50;;;9.10;99.90;;;;;;5051511;28;20186;-69
2022/02/22 00:20:10;;;;;;;11.13;5.27;;;9.10;99.90;;;;;;5050182;28;20712;-71
2022/02/22 00:22:38;;;;;;;14.10;5.10;;;9.10;99.90;;;;;;5050009;28;20197;-69
2022/02/22 00:25:04;;;;;;;11.23;4.70;;;9.00;99.90;;;;;;5052828;28;20487;-69
2022/02/22 00:27:30;;;;;;;11.30;3.90;;;9.00;99.90;;;;;;5052369;28;20459;-80
2022/02/22 00:29:56;;;;;;;15.63;4.40;;;9.10;99.90;;;;;;5052053;28;20420;-69
2022/02/22 00:32:22;;;;;;;11.13;5.00;;;9.10;99.90;;;;;;5053927;28;20480;-68
2022/02/22 00:34:48;;;;;;;20.90;5.23;;;9.10;99.90;;;;;;5053245;28;20177;-68
2022/02/22 00:37:14;;;;;;;13.23;4.30;;;9.10;99.90;;;;;;5051173;28;20687;-69
2022/02/22 00:39:40;;;;;;;14.30;4.70;;;8.90;99.90;;;;;;5051855;28;20412;-68
2022/02/22 00:42:06;;;;;;;11.80;4.17;;;8.90;99.90;;;;;;5052431;28;20474;-68
2022/02/22 00:44:32;;;;;;;12.60;3.83;;;8.80;99.90;;;;;;5051803;28;20172;-77
2022/02/22 00:46:58;;;;;;;12.97;5.07;;;8.70;99.90;;;;;;5034216;28;20463;-68
2022/02/22 00:49:24;;;;;;;17.20;4.57;;;8.60;99.90;;;;;;5052556;28;20462;-68
2022/02/22 00:51:49;;;;;;;19.30;5.40;;;8.50;99.90;;;;;;5051936;28;20202;-68
2022/02/22 00:54:15;;;;;;;19.10;5.23;;;8.50;99.90;;;;;;5051631;28;20220;-69
2022/02/22 00:56:41;;;;;;;12.77;4.53;;;8.50;99.90;;;;;;5051917;28;20189;-69
2022/02/22 00:59:07;;;;;;;14.43;4.33;;;8.50;99.90;;;;;;5052556;28;20231;-68
2022/02/22 01:01:32;;;;;;;16.10;5.47;;;8.40;99.90;;;;;;5050357;28;20186;-79
2022/02/22 01:03:58;;;;;;;22.93;5.67;;;8.50;99.90;;;;;;5051657;28;20235;-68
2022/02/22 01:06:24;;;;;;;22.37;5.20;;;8.50;99.90;;;;;;5052161;28;20699;-68
2022/02/22 01:08:49;;;;;;;16.53;7.10;;;8.50;99.90;;;;;;5051425;28;20606;-68
2022/02/22 01:11:15;;;;;;;20.97;4.43;;;8.60;99.90;;;;;;5052201;28;20256;-68
2022/02/22 01:13:41;;;;;;;16.87;4.40;;;8.60;99.90;;;;;;5051564;28;20644;-69
2022/02/22 01:16:06;;;;;;;11.60;5.53;;;8.70;99.90;;;;;;5052243;28;20695;-68
2022/02/22 01:18:32;;;;;;;13.23;4.77;;;8.80;99.90;;;;;;5052262;28;20176;-79
2022/02/22 01:20:58;;;;;;;12.93;5.57;;;8.80;99.90;;;;;;5051010;28;20318;-69
2022/02/22 01:23:24;;;;;;;23.03;4.80;;;8.80;99.90;;;;;;5052299;28;20186;-68
2022/02/22 01:25:50;;;;;;;16.23;5.53;;;8.80;99.90;;;;;;5051406;28;20299;-69
2022/02/22 01:28:16;;;;;;;13.23;3.60;;;8.90;99.90;;;;;;5050884;28;20208;-68
2022/02/22 01:30:42;;;;;;;13.43;4.33;;;8.80;99.90;;;;;;5051516;28;20449;-69
2022/02/22 01:33:08;;;;;;;10.60;3.97;;;8.80;99.90;;;;;;5052133;28;20908;-68
2022/02/22 01:35:33;;;;;;;5.73;3.30;;;8.70;99.90;;;;;;5052008;28;20408;-79
2022/02/22 01:37:59;;;;;;;9.87;3.47;;;8.60;99.90;;;;;;5051550;28;20185;-68
2022/02/22 01:40:26;;;;;;;10.80;3.73;;;8.50;99.90;;;;;;5034115;28;20625;-68
2022/02/22 01:42:53;;;;;;;6.93;3.77;;;8.40;99.90;;;;;;5050977;28;20203;-69
2022/02/22 01:45:22;;;;;;;5.90;4.30;;;8.30;99.90;;;;;;5050391;28;20436;-69
2022/02/22 01:47:48;;;;;;;5.57;3.43;;;8.30;99.90;;;;;;5051113;28;20462;-69
2022/02/22 01:50:14;;;;;;;8.30;3.73;;;8.20;99.90;;;;;;5049449;28;20412;-68
2022/02/22 01:52:40;;;;;;;6.60;3.67;;;8.20;99.90;;;;;;5049517;28;20173;-69
2022/02/22 01:55:07;;;;;;;7.43;3.80;;;8.20;99.90;;;;;;5049609;28;20457;-69
2022/02/22 01:57:34;;;;;;;6.90;4.10;;;8.20;99.90;;;;;;5050548;28;20182;-69
2022/02/22 02:00:01;;;;;;;13.13;4.17;;;8.20;99.90;;;;;;5049935;28;20419;-69
2022/02/22 02:02:27;;;;;;;6.07;4.03;;;8.20;99.90;;;;;;5050291;28;20404;-69
2022/02/22 02:04:52;;;;;;;9.57;4.10;;;8.20;99.90;;;;;;5049865;28;20861;-69
2022/02/22 02:07:18;;;;;;;14.60;4.97;;;8.10;99.90;;;;;;5055275;28;20209;-69
2022/02/22 02:09:44;;;;;;;5.43;3.63;;;8.20;99.90;;;;;;5055037;28;20222;-68
2022/02/22 02:12:10;;;;;;;10.37;5.67;;;8.10;99.90;;;;;;5054246;28;20613;-69
2022/02/22 02:14:35;;;;;;;6.80;4.67;;;8.10;99.90;;;;;;5054892;28;20227;-79
2022/02/22 02:17:01;;;;;;;8.67;4.70;;;8.00;99.90;;;;;;5055254;28;20416;-68
2022/02/22 02:19:27;;;;;;;11.53;5.13;;;8.00;99.90;;;;;;5055574;28;20185;-67
2022/02/22 02:21:57;;;;;;;14.07;4.63;;;8.00;99.90;;;;;;5053299;28;20411;-68
2022/02/22 02:24:24;;;;;;;13.77;5.03;;;7.90;99.90;;;;;;5054960;28;20212;-69
2022/02/22 02:26:52;;;;;;;10.17;4.50;;;7.90;99.90;;;;;;5054322;28;20899;-68
2022/02/22 02:29:24;;;;;;;25.30;6.53;;;7.90;99.90;;;;;;5055280;28;20439;-68
2022/02/22 02:31:51;;;;;;;13.57;4.90;;;8.00;99.90;;;;;;5054373;28;20423;-69
2022/02/22 02:34:19;;;;;;;16.43;5.63;;;8.00;99.90;;;;;;5055106;28;20411;-69
2022/02/22 02:36:45;;;;;;;12.50;5.40;;;7.90;99.90;;;;;;5052791;28;20433;-69
2022/02/22 02:39:12;;;;;;;16.17;5.30;;;7.90;99.90;;;;;;5055262;28;20422;-69
2022/02/22 02:41:43;;;;;;;17.03;5.57;;;8.10;99.90;;;;;;5055185;28;20415;-78
2022/02/22 02:44:14;;;;;;;18.40;5.03;;;7.90;99.90;;;;;;5055328;28;20408;-69
2022/02/22 02:46:41;;;;;;;13.40;5.40;;;7.60;99.90;;;;;;5054527;28;20562;-79
2022/02/22 02:49:08;;;;;;;17.57;6.60;;;8.00;99.90;;;;;;5054433;28;20469;-69
2022/02/22 02:51:34;;;;;;;12.27;6.00;;;7.50;99.90;;;;;;5055048;28;20400;-68
2022/02/22 02:54:00;;;;;;;15.33;5.40;;;8.00;99.90;;;;;;5054197;28;20445;-69
2022/02/22 02:56:26;;;;;;;20.40;5.93;;;8.00;99.90;;;;;;5053684;28;20420;-68
2022/02/22 02:58:56;;;;;;;16.07;5.60;;;8.00;99.90;;;;;;5052831;28;20449;-68
2022/02/22 03:01:22;;;;;;;19.87;5.10;;;8.00;99.90;;;;;;5052878;28;20927;-69
2022/02/22 03:03:48;;;;;;;21.23;5.27;;;7.70;99.90;;;;;;5054318;28;20485;-68
2022/02/22 03:06:14;;;;;;;16.53;5.17;;;8.10;99.90;;;;;;5054364;28;20448;-69
2022/02/22 03:08:40;;;;;;;18.03;4.70;;;8.10;99.90;;;;;;5054035;28;20466;-80
2022/02/22 03:11:06;;;;;;;28.97;4.90;;;7.90;99.90;;;;;;5054390;28;20178;-69
2022/02/22 03:13:31;;;;;;;14.77;4.90;;;8.10;99.90;;;;;;5054122;28;20451;-68
2022/02/22 03:15:57;;;;;;;17.67;5.10;;;8.20;99.90;;;;;;5053532;28;20430;-68
2022/02/22 03:18:23;;;;;;;14.33;5.50;;;8.20;99.90;;;;;;5053513;28;20630;-68
2022/02/22 03:20:48;;;;;;;14.03;6.37;;;8.10;99.90;;;;;;5053437;28;20232;-69
2022/02/22 03:23:16;;;;;;;14.83;5.60;;;8.10;99.90;;;;;;5054543;28;20189;-70
2022/02/22 03:25:42;;;;;;;16.90;5.60;;;8.10;99.90;;;;;;5052758;28;20177;-78
2022/02/22 03:28:08;;;;;;;12.30;4.67;;;8.10;99.90;;;;;;5054303;28;20824;-69
2022/02/22 03:30:35;;;;;;;20.13;6.00;;;8.10;99.90;;;;;;5054178;28;20416;-68
2022/02/22 03:33:01;;;;;;;12.07;5.50;;;8.00;99.90;;;;;;5053461;28;20200;-69
2022/02/22 03:35:28;;;;;;;17.00;6.50;;;8.10;99.90;;;;;;5052878;28;20420;-68
2022/02/22 03:37:54;;;;;;;10.30;5.37;;;8.10;99.90;;;;;;5053385;28;20411;-69
2022/02/22 03:40:20;;;;;;;15.07;5.10;;;8.10;99.90;;;;;;5054473;28;20411;-69
2022/02/22 03:42:46;;;;;;;16.03;5.50;;;8.10;99.90;;;;;;5051900;28;20419;-69
2022/02/22 03:45:13;;;;;;;13.50;4.90;;;7.80;99.90;;;;;;5053731;28;20415;-69
2022/02/22 03:47:40;;;;;;;15.70;5.43;;;8.20;99.90;;;;;;5052502;28;20489;-69
2022/02/22 03:50:07;;;;;;;15.40;5.50;;;8.20;99.90;;;;;;5053157;28;20404;-69
2022/02/22 03:52:33;;;;;;;20.33;4.90;;;8.20;99.90;;;;;;5053935;28;20416;-69
2022/02/22 03:54:58;;;;;;;14.70;5.57;;;8.20;99.90;;;;;;5052571;28;20432;-69
2022/02/22 03:57:24;;;;;;;21.77;5.60;;;8.30;99.90;;;;;;5053267;28;20416;-69
2022/02/22 03:59:50;;;;;;;16.97;6.07;;;8.30;99.90;;;;;;5052440;28;20661;-69
2022/02/22 04:02:15;;;;;;;19.40;5.30;;;8.30;99.90;;;;;;5053774;28;20213;-69
2022/02/22 04:04:41;;;;;;;13.27;5.10;;;8.30;99.90;;;;;;5053136;28;20189;-77
2022/02/22 04:07:07;;;;;;;10.50;5.67;;;8.30;99.90;;;;;;5052870;28;20224;-69
2022/02/22 04:09:33;;;;;;;20.30;5.57;;;8.20;99.90;;;;;;5052940;28;20537;-73
2022/02/22 04:11:59;;;;;;;19.40;6.10;;;8.30;99.90;;;;;;5052282;28;20181;-69
2022/02/22 04:14:24;;;;;;;15.43;6.50;;;8.20;99.90;;;;;;5052980;28;20169;-69
2022/02/22 04:16:50;;;;;;;21.93;6.93;;;8.20;99.90;;;;;;5050497;28;20185;-69
2022/02/22 04:19:16;;;;;;;15.03;5.10;;;8.20;99.90;;;;;;5052578;28;20224;-69
2022/02/22 04:21:42;;;;;;;13.93;4.93;;;8.20;99.90;;;;;;5053350;28;20221;-80
2022/02/22 04:24:08;;;;;;;15.70;5.00;;;8.10;99.90;;;;;;5052290;28;20564;-69
2022/02/22 04:26:34;;;;;;;16.63;5.20;;;8.10;99.90;;;;;;5052828;28;20967;-70
2022/02/22 04:29:00;;;;;;;19.27;5.87;;;8.10;99.90;;;;;;5052366;28;20243;-69
2022/02/22 04:31:27;;;;;;;15.07;5.30;;;8.10;99.90;;;;;;5053144;28;20185;-69
2022/02/22 04:33:53;;;;;;;25.40;5.40;;;8.10;99.90;;;;;;5050804;28;20931;-69
2022/02/22 04:36:19;;;;;;;16.43;5.00;;;8.10;99.90;;;;;;5053145;28;20477;-69
2022/02/22 04:38:45;;;;;;;17.10;6.53;;;8.00;99.90;;;;;;5052156;28;20435;-78
2022/02/22 04:41:11;;;;;;;10.67;5.37;;;8.00;99.90;;;;;;5052654;28;20429;-69
2022/02/22 04:43:37;;;;;;;13.70;4.97;;;8.00;99.90;;;;;;5052662;28;20423;-69
2022/02/22 04:46:03;;;;;;;17.20;5.70;;;8.10;99.90;;;;;;5051872;28;20423;-69
2022/02/22 04:48:29;;;;;;;12.93;5.83;;;8.00;99.90;;;;;;5052562;28;20545;-69
2022/02/22 04:50:54;;;;;;;16.80;5.17;;;8.00;99.90;;;;;;5050407;28;20423;-69
2022/02/22 04:53:20;;;;;;;13.00;6.13;;;8.00;99.90;;;;;;5051712;28;20263;-68
2022/02/22 04:55:46;;;;;;;12.27;4.20;;;8.10;99.90;;;;;;5034481;28;20275;-76
2022/02/22 04:58:12;;;;;;;12.90;4.30;;;8.10;99.90;;;;;;5050937;28;20289;-68
2022/02/22 05:00:38;;;;;;;20.33;6.53;;;8.10;99.90;;;;;;5051400;28;20936;-68
2022/02/22 05:03:03;;;;;;;19.30;4.87;;;8.00;99.90;;;;;;5051820;28;20544;-67
2022/02/22 05:05:29;;;;;;;18.50;5.10;;;8.00;99.90;;;;;;5053244;28;20526;-68
2022/02/22 05:07:55;;;;;;;18.40;5.50;;;8.10;99.90;;;;;;5052097;28;20235;-68
2022/02/22 05:10:21;;;;;;;25.17;6.40;;;8.10;99.90;;;;;;5052097;28;20428;-67
2022/02/22 05:12:46;;;;;;;15.30;4.70;;;8.10;99.90;;;;;;5052203;28;20177;-68
2022/02/22 05:15:12;;;;;;;9.77;6.23;;;8.10;99.90;;;;;;5052296;28;20234;-68
2022/02/22 05:17:38;;;;;;;15.80;7.30;;;8.10;99.90;;;;;;5052473;28;20181;-67
2022/02/22 05:20:08;;;;;;;11.50;5.10;;;8.20;99.90;;;;;;5051715;28;20312;-72
2022/02/22 05:22:41;;;;;;;19.80;5.40;;;8.20;99.90;;;;;;5052222;28;20519;-68
2022/02/22 05:25:08;;;;;;;12.90;5.10;;;8.20;99.90;;;;;;5051544;28;20856;-68
2022/02/22 05:27:34;;;;;;;15.37;4.83;;;8.20;99.90;;;;;;5051007;28;20511;-68
2022/02/22 05:29:59;;;;;;;21.17;6.47;;;8.20;99.90;;;;;;5051615;28;20455;-68
2022/02/22 05:32:26;;;;;;;17.73;6.30;;;8.10;99.90;;;;;;5052533;28;20243;-67
2022/02/22 05:34:52;;;;;;;23.60;5.50;;;8.20;99.90;;;;;;5051553;28;20669;-68
2022/02/22 05:37:17;;;;;;;14.27;5.40;;;8.20;99.90;;;;;;5052685;28;20500;-67
2022/02/22 05:39:43;;;;;;;15.87;5.93;;;8.20;99.90;;;;;;5052112;28;20226;-67
2022/02/22 05:42:09;;;;;;;20.37;5.23;;;8.20;99.90;;;;;;5051618;28;20217;-67
2022/02/22 05:44:34;;;;;;;14.57;6.30;;;8.30;99.90;;;;;;5052425;28;20177;-68
2022/02/22 05:47:00;;;;;;;19.30;5.50;;;8.30;99.90;;;;;;5051535;28;20212;-68
2022/02/22 05:49:26;;;;;;;18.37;6.00;;;8.20;99.90;;;;;;5052760;28;20182;-67
2022/02/22 05:51:54;;;;;;;16.17;6.77;;;8.10;99.90;;;;;;5051703;28;20173;-68
2022/02/22 05:54:20;;;;;;;19.03;6.47;;;8.10;99.90;;;;;;5052417;28;20181;-67
2022/02/22 05:56:46;;;;;;;20.10;6.00;;;8.10;99.90;;;;;;5056692;28;20426;-68
2022/02/22 05:59:12;;;;;;;17.60;7.17;;;8.10;99.90;;;;;;5050035;28;20428;-68
2022/02/22 06:01:38;;;;;;;20.93;6.27;;;8.10;99.90;;;;;;5049178;28;20713;-68
2022/02/22 06:04:07;;;;;;;17.23;5.83;;;8.10;99.90;;;;;;5049121;28;20937;-67
2022/02/22 06:06:32;;;;;;;24.03;6.70;;;8.10;99.90;;;;;;5051457;28;20976;-67
2022/02/22 06:08:58;;;;;;;26.73;6.80;;;8.10;99.90;;;;;;5050794;28;20431;-68
2022/02/22 06:11:24;;;;;;;20.13;5.87;;;8.00;99.90;;;;;;5051864;28;20181;-68
2022/02/22 06:13:50;;;;;;;24.23;6.60;;;7.70;99.90;;;;;;5051585;28;20183;-75
2022/02/22 06:16:16;;;;;;;15.90;6.10;;;8.00;99.90;;;;;;5050899;28;20190;-68
2022/02/22 06:18:41;;;;;;;22.70;8.17;;;7.90;99.90;;;;;;5051061;28;20926;-68
2022/02/22 06:21:07;;;;;;;26.73;7.00;;;8.00;99.90;;;;;;5050383;28;20227;-68
2022/02/22 06:23:33;;;;;;;15.10;7.23;;;8.00;99.90;;;;;;5050486;28;20185;-70
2022/02/22 06:25:58;;;;;;;25.63;8.30;;;8.00;99.90;;;;;;5050691;28;20180;-70
2022/02/22 06:28:24;;;;;;;18.73;6.60;;;8.00;99.90;;;;;;5051495;28;20174;-70
2022/02/22 06:30:50;;;;;;;21.97;7.23;;;7.70;99.90;;;;;;5049329;28;20216;-84
2022/02/22 06:33:15;;;;;;;11.53;6.00;;;8.00;99.90;;;;;;5051027;28;20188;-74
2022/02/22 06:35:41;;;;;;;15.07;7.90;;;8.30;99.90;;;;;;5050227;28;20181;-72
2022/02/22 06:38:07;;;;;;;17.73;7.10;;;8.90;99.90;;;;;;5049211;28;20209;-72
2022/02/22 06:40:32;;;;;;;14.07;8.57;;;9.40;99.90;;;;;;5051824;28;20185;-73
2022/02/22 06:42:58;;;;;;;13.27;5.37;;;9.90;99.90;;;;;;5050626;28;20174;-72
2022/02/22 06:45:24;;;;;;;16.70;8.37;;;10.30;99.90;;;;;;5050045;28;20268;-73
2022/02/22 06:47:50;;;;;;;16.17;6.63;;;10.60;99.90;;;;;;5051495;28;20519;-73
2022/02/22 06:50:16;;;;;;;19.63;8.43;;;10.80;99.90;;;;;;5050074;28;20326;-72
2022/02/22 06:52:42;;;;;;;11.93;4.87;;;10.60;99.90;;;;;;5053304;28;20544;-73
2022/02/22 06:55:09;;;;;;;13.40;8.83;;;10.40;99.90;;;;;;5053330;28;20617;-72
2022/02/22 06:57:35;;;;;;;23.30;8.50;;;10.10;99.90;;;;;;5054446;28;20743;-70
2022/02/22 07:00:01;;;;;;;20.57;6.90;;;9.80;99.90;;;;;;5054003;28;20439;-71
2022/02/22 07:02:26;;;;;;;14.07;7.37;;;9.60;99.90;;;;;;5053602;28;20182;-70
2022/02/22 07:04:52;;;;;;;10.83;5.47;;;9.40;99.90;;;;;;5053140;28;20466;-72
2022/02/22 07:07:18;;;;;;;16.77;8.20;;;9.20;99.90;;;;;;5055193;28;20202;-70
2022/02/22 07:09:43;;;;;;;17.10;6.70;;;9.00;99.90;;;;;;5054907;28;20269;-70
2022/02/22 07:12:09;;;;;;;14.90;5.77;;;8.90;99.90;;;;;;5053743;28;20174;-72
2022/02/22 07:14:35;;;;;;;12.43;5.47;;;8.80;99.90;;;;;;5054598;28;20268;-70
2022/02/22 07:17:01;;;;;;;13.27;5.10;;;8.70;99.90;;;;;;5053451;28;20452;-71
2022/02/22 07:19:26;;;;;;;14.33;6.57;;;8.60;99.90;;;;;;5053501;28;20232;-71
2022/02/22 07:21:52;;;;;;;20.33;5.90;;;8.60;99.90;;;;;;5052806;28;20181;-74
2022/02/22 07:24:18;;;;;;;24.07;7.40;;;8.60;99.90;;;;;;5056730;28;20185;-73
2022/02/22 07:26:44;;;;;;;16.40;6.17;;;8.60;99.90;;;;;;5057612;28;20454;-70
2022/02/22 07:29:10;;;;;;;15.60;6.00;;;8.50;99.90;;;;;;5055324;28;20182;-69
2022/02/22 07:31:35;;;;;;;16.40;6.40;;;8.50;99.90;;;;;;5052675;28;20185;-69
2022/02/22 07:34:01;;;;;;;16.27;5.63;;;8.50;99.90;;;;;;5052340;28;20424;-71
2022/02/22 07:36:27;;;;;;;11.57;6.80;;;8.50;99.90;;;;;;5052658;28;20177;-69
2022/02/22 07:38:52;;;;;;;14.40;6.40;;;8.40;99.90;;;;;;5053969;28;20504;-74
2022/02/22 07:41:22;;;;;;;19.77;6.50;;;8.40;99.90;;;;;;5055013;28;20526;-69
2022/02/22 07:43:51;;;;;;;10.50;5.80;;;8.40;99.90;;;;;;5052684;28;20185;-69
2022/02/22 07:46:18;;;;;;;17.13;7.10;;;8.30;99.90;;;;;;5052603;28;20465;-70
2022/02/22 07:48:47;;;;;;;22.07;7.27;;;8.30;99.90;;;;;;5052473;28;20963;-70
2022/02/22 07:51:16;;;;;;;19.17;6.83;;;7.90;99.90;;;;;;5052720;28;21263;-69
2022/02/22 07:53:46;;;;;;;18.07;5.70;;;8.30;99.90;;;;;;5053862;28;20491;-73
2022/02/22 07:56:12;;;;;;;16.40;6.47;;;8.30;99.90;;;;;;5052382;28;20491;-70
2022/02/22 07:58:38;;;;;;;15.17;7.13;;;8.30;99.90;;;;;;5053636;28;20511;-70
2022/02/22 08:01:05;;;;;;;16.50;7.93;;;8.40;99.90;;;;;;5052713;28;20435;-70
2022/02/22 08:03:32;;;;;;;17.20;8.70;;;8.50;99.90;;;;;;5053610;28;20424;-70
2022/02/22 08:05:58;;;;;;;18.20;8.50;;;8.50;99.90;;;;;;5051590;28;20515;-73
2022/02/22 08:08:24;;;;;;;26.30;10.97;;;8.50;99.90;;;;;;5052369;28;20531;-70
2022/02/22 08:10:50;;;;;;;18.10;9.90;;;8.40;99.90;;;;;;5053553;28;20379;-70
2022/02/22 08:13:17;;;;;;;23.63;11.47;;;8.50;99.90;;;;;;5052557;28;20450;-69
2022/02/22 08:15:42;;;;;;;24.30;10.57;;;8.50;99.90;;;;;;5052969;28;20416;-69
2022/02/22 08:18:08;;;;;;;22.00;11.73;;;8.50;99.90;;;;;;5052850;28;20435;-72
2022/02/22 08:20:34;;;;;;;27.53;10.90;;;8.60;99.90;;;;;;5051950;28;20973;-69
2022/02/22 08:23:00;;;;;;;19.00;8.47;;;8.70;99.90;;;;;;5052654;28;20565;-70
2022/02/22 08:25:27;;;;;;;18.37;11.50;;;8.70;99.90;;;;;;5053104;28;20185;-70
2022/02/22 08:27:53;;;;;;;19.70;9.00;;;8.70;99.90;;;;;;5051309;28;20915;-69
2022/02/22 08:30:19;;;;;;;25.10;11.57;;;8.80;99.90;;;;;;5052164;28;20447;-69
2022/02/22 08:32:45;;;;;;;16.33;9.30;;;8.90;99.90;;;;;;5053081;28;20416;-70
2022/02/22 08:35:10;;;;;;;19.30;10.00;;;8.90;99.90;;;;;;5052250;28;20269;-69
2022/02/22 08:37:36;;;;;;;17.60;9.20;;;8.90;99.90;;;;;;5057170;28;20276;-69
2022/02/22 08:40:03;;;;;;;19.27;7.90;;;9.00;99.90;;;;;;5052067;28;20228;-72
2022/02/22 08:42:29;;;;;;;15.93;8.30;;;9.00;99.90;;;;;;5052618;28;20184;-70
2022/02/22 08:44:57;;;;;;;14.00;7.70;;;9.10;99.90;;;;;;5053426;28;20423;-70
2022/02/22 08:47:22;;;;;;;20.03;8.37;;;9.10;99.90;;;;;;5052559;28;20456;-70
2022/02/22 08:49:48;;;;;;;19.17;8.13;;;9.10;99.90;;;;;;5051924;28;20982;-70
2022/02/22 08:52:17;;;;;;;16.27;7.47;;;9.10;99.90;;;;;;5051533;28;20502;-74
2022/02/22 08:54:43;;;;;;;15.77;7.53;;;9.10;99.90;;;;;;5052638;28;20216;-69
2022/02/22 08:57:09;;;;;;;9.50;7.40;;;9.10;99.90;;;;;;5051903;28;20462;-70
2022/02/22 08:59:35;;;;;;;15.03;7.43;;;9.10;99.90;;;;;;5052990;28;20420;-69
2022/02/22 09:02:01;;;;;;;13.60;7.00;;;9.20;99.90;;;;;;5051590;28;20778;-70
2022/02/22 09:04:27;;;;;;;20.00;9.20;;;9.30;99.90;;;;;;5052502;28;20417;-70
2022/02/22 09:06:52;;;;;;;15.80;6.30;;;9.30;99.90;;;;;;5051605;28;20202;-70
2022/02/22 09:09:18;;;;;;;13.37;7.53;;;9.40;99.90;;;;;;5049861;28;20572;-70
2022/02/22 09:11:44;;;;;;;15.03;6.83;;;9.50;99.90;;;;;;5050869;28;20231;-70
2022/02/22 09:14:10;;;;;;;12.60;6.10;;;9.40;99.90;;;;;;5049626;28;20186;-73
2022/02/22 09:16:36;;;;;;;13.80;7.17;;;9.40;99.90;;;;;;5050771;28;20545;-70
2022/02/22 09:19:02;;;;;;;14.50;6.57;;;9.50;99.90;;;;;;5049906;28;20255;-70
2022/02/22 09:21:27;;;;;;;10.83;9.03;;;9.50;99.90;;;;;;5051220;28;20219;-70
2022/02/22 09:23:53;;;;;;;17.80;7.10;;;9.50;99.90;;;;;;5051333;28;20424;-72
2022/02/22 09:26:19;;;;;;;10.57;7.40;;;9.60;99.90;;;;;;5050514;28;20185;-70
2022/02/22 09:28:45;;;;;;;10.03;6.43;;;9.60;99.90;;;;;;5051011;28;20631;-70
2022/02/22 09:31:12;;;;;;;13.53;5.97;;;9.70;99.90;;;;;;5050121;28;20630;-70
2022/02/22 09:33:37;;;;;;;10.33;5.80;;;9.80;99.90;;;;;;5050607;28;20437;-69
2022/02/22 09:36:03;;;;;;;22.47;7.50;;;10.00;99.90;;;;;;5050671;28;20427;-72
2022/02/22 09:38:29;;;;;;;13.07;5.40;;;10.10;99.90;;;;;;5050065;28;20180;-69
2022/02/22 09:40:57;;;;;;;10.73;6.20;;;10.20;99.90;;;;;;5050610;28;20461;-70
2022/02/22 09:43:23;;;;;;;10.83;5.63;;;10.30;99.90;;;;;;5051085;28;20441;-70
2022/02/22 09:45:49;;;;;;;8.80;4.23;;;10.30;99.90;;;;;;5051659;28;20909;-70
2022/02/22 09:48:16;;;;;;;13.50;6.60;;;10.40;99.90;;;;;;5050284;28;20219;-69
2022/02/22 09:50:42;;;;;;;19.03;5.57;;;10.40;99.90;;;;;;5051879;28;20777;-70
2022/02/22 09:53:08;;;;;;;12.50;7.63;;;10.40;99.90;;;;;;5051442;28;20406;-71
2022/02/22 09:55:34;;;;;;;15.13;7.60;;;10.40;99.90;;;;;;5051230;28;20230;-71
2022/02/22 09:58:00;;;;;;;8.20;5.97;;;10.40;99.90;;;;;;5050593;28;20739;-70
2022/02/22 10:00:31;;;;;;;10.93;8.10;;;10.30;99.80;;;;;;5050759;28;20435;-70
2022/02/22 10:02:57;;;;;;;12.97;7.07;;;10.20;99.90;;;;;;5049711;28;20534;-70
2022/02/22 10:05:27;;;;;;;19.83;5.60;;;10.30;99.90;;;;;;5050558;28;20922;-70
2022/02/22 10:08:02;;;;;;;10.13;6.70;;;10.20;99.90;;;;;;5049565;28;20451;-70
2022/02/22 10:10:46;;;;;;;13.03;5.70;;;10.20;99.90;;;;;;5049144;28;20413;-73
2022/02/22 10:13:20;;;;;;;12.03;6.60;;;10.10;99.90;;;;;;5049095;28;20736;-70
2022/02/22 10:15:45;;;;;;;10.40;5.53;;;10.20;99.90;;;;;;5047399;28;20404;-71
2022/02/22 10:18:12;;;;;;;10.80;6.23;;;10.10;99.70;;;;;;5050271;28;20416;-70
2022/02/22 10:20:38;;;;;;;10.80;7.00;;;10.00;99.50;;;;;;5051524;28;20215;-69
2022/02/22 10:23:06;;;;;;;8.97;6.43;;;10.10;99.90;;;;;;5050091;28;20401;-70
2022/02/22 10:25:33;;;;;;;13.30;6.23;;;10.00;99.90;;;;;;5050713;28;20442;-70
2022/02/22 10:28:00;;;;;;;7.83;6.80;;;9.90;99.90;;;;;;5054546;28;20834;-70
2022/02/22 10:30:39;;;;;;;7.67;5.70;;;10.00;99.70;;;;;;5055595;28;20767;-70
2022/02/22 10:33:14;;;;;;;6.47;4.73;;;10.00;99.90;;;;;;5055488;28;20408;-70
2022/02/22 10:35:41;;;;;;;8.97;4.90;;;10.10;99.90;;;;;;5055331;28;20411;-70
2022/02/22 10:38:16;;;;;;;11.13;5.83;;;10.10;99.90;;;;;;5053060;28;20554;-72
2022/02/22 10:40:50;;;;;;;6.77;5.40;;;10.10;99.90;;;;;;5054753;28;20750;-69
2022/02/22 10:43:27;;;;;;;9.67;4.50;;;10.20;99.80;;;;;;5050864;28;20813;-69
2022/02/22 10:45:55;;;;;;;8.83;5.40;;;10.20;99.60;;;;;;5054131;28;20407;-69
2022/02/22 10:48:26;;;;;;;8.00;4.90;;;10.20;99.70;;;;;;5053424;28;20465;-69
2022/02/22 10:50:53;;;;;;;8.17;6.30;;;10.30;99.90;;;;;;5054106;28;20427;-69
2022/02/22 10:53:18;;;;;;;6.43;4.30;;;10.40;99.40;;;;;;5054023;28;20416;-72
2022/02/22 10:55:46;;;;;;;7.93;5.40;;;10.40;99.90;;;;;;5054865;28;20418;-69
2022/02/22 10:58:12;;;;;;;9.87;5.80;;;10.40;99.70;;;;;;5054623;28;20201;-69
2022/02/22 11:00:38;;;;;;;6.17;3.87;;;10.50;99.60;;;;;;5054979;28;20426;-69
2022/02/22 11:03:04;;;;;;;6.67;5.90;;;10.40;98.80;;;;;;5054640;28;20406;-69
2022/02/22 11:05:30;;;;;;;12.63;5.57;;;10.30;99.60;;;;;;5054020;28;20180;-69
2022/02/22 11:07:56;;;;;;;4.80;4.40;;;10.20;99.80;;;;;;5054273;28;20540;-69
2022/02/22 11:10:28;;;;;;;5.70;4.13;;;10.30;99.90;;;;;;5053068;28;20500;-69
2022/02/22 11:12:59;;;;;;;10.40;5.47;;;10.20;99.90;;;;;;5053656;28;20226;-68
2022/02/22 11:15:39;;;;;;;9.20;5.50;;;10.20;99.90;;;;;;5051741;28;20438;-69
2022/02/22 11:18:20;;;;;;;10.33;5.53;;;10.30;99.90;;;;;;5049896;28;20418;-69
2022/02/22 11:20:46;;;;;;;10.70;4.87;;;10.20;99.90;;;;;;5042370;28;20867;-68
2022/02/22 11:23:22;;;;;;;13.50;5.47;;;10.20;99.90;;;;;;5052900;28;20441;-69
2022/02/22 11:25:49;;;;;;;8.90;5.20;;;10.30;99.90;;;;;;5052790;28;20499;-70
2022/02/22 11:28:15;;;;;;;7.80;4.87;;;10.40;99.90;;;;;;5052111;28;20462;-70
2022/02/22 11:30:42;;;;;;;11.57;5.53;;;10.40;99.90;;;;;;5054420;28;20917;-70
2022/02/22 11:33:16;;;;;;;10.00;5.70;;;10.40;99.90;;;;;;5053703;28;20897;-71
2022/02/22 11:35:46;;;;;;;9.37;5.70;;;10.40;99.90;;;;;;5054457;28;20405;-69
2022/02/22 11:38:12;;;;;;;11.53;5.60;;;10.30;99.90;;;;;;5052133;28;20522;-70
2022/02/22 11:40:38;;;;;;;6.87;5.63;;;10.20;99.90;;;;;;5054216;28;20497;-69
2022/02/22 11:43:16;;;;;;;8.83;5.00;;;10.20;99.90;;;;;;5049362;28;20182;-69
2022/02/22 11:45:47;;;;;;;7.90;5.03;;;10.20;99.90;;;;;;5050715;28;20477;-70
2022/02/22 11:48:18;;;;;;;6.50;5.90;;;10.20;99.90;;;;;;5049262;28;20792;-69
2022/02/22 11:50:45;;;;;;;8.57;5.40;;;10.10;99.90;;;;;;5053999;28;20462;-72
2022/02/22 11:53:13;;;;;;;12.67;7.63;;;10.10;99.90;;;;;;5053019;28;20439;-69
2022/02/22 11:55:40;;;;;;;12.40;5.90;;;10.00;99.90;;;;;;5053763;28;20446;-70
2022/02/22 11:58:19;;;;;;;9.97;5.50;;;10.00;99.90;;;;;;5052510;28;20920;-70
2022/02/22 12:00:46;;;;;;;8.67;5.73;;;10.00;99.90;;;;;;5054014;28;20503;-70
2022/02/22 12:03:14;;;;;;;10.03;4.60;;;10.10;99.90;;;;;;5052605;28;20929;-70
2022/02/22 12:05:41;;;;;;;7.10;4.33;;;10.10;99.90;;;;;;5052660;28;20445;-69
2022/02/22 12:08:14;;;;;;;11.10;5.13;;;10.10;99.90;;;;;;5051803;28;20456;-70
2022/02/22 12:10:53;;;;;;;10.17;5.03;;;10.20;99.90;;;;;;5050536;28;20416;-70
2022/02/22 12:13:21;;;;;;;8.23;5.30;;;10.20;99.90;;;;;;5051588;28;20803;-70
2022/02/22 12:15:48;;;;;;;8.47;4.40;;;10.30;99.90;;;;;;5053297;28;20417;-69
2022/02/22 12:18:25;;;;;;;7.30;4.27;;;10.30;99.90;;;;;;5051058;28;20757;-70
2022/02/22 12:20:53;;;;;;;8.50;4.97;;;10.30;99.90;;;;;;5050893;28;20465;-70
2022/02/22 12:23:20;;;;;;;10.37;5.17;;;10.30;99.90;;;;;;5051392;28;20440;-71
2022/02/22 12:25:47;;;;;;;10.33;4.87;;;10.40;99.90;;;;;;5052702;28;20411;-69
2022/02/22 12:28:13;;;;;;;9.10;4.30;;;10.40;99.90;;;;;;5052737;28;20452;-69
2022/02/22 12:30:41;;;;;;;9.87;4.17;;;10.40;99.90;;;;;;5051911;28;20421;-69
2022/02/22 12:33:08;;;;;;;8.87;4.50;;;10.30;99.90;;;;;;5052810;28;20508;-69
2022/02/22 12:35:36;;;;;;;9.07;4.47;;;10.30;99.90;;;;;;5051347;28;20930;-69
2022/02/22 12:38:16;;;;;;;8.60;4.30;;;10.30;99.90;;;;;;5052806;28;20403;-71
2022/02/22 12:40:43;;;;;;;11.20;6.20;;;10.40;99.90;;;;;;5053398;28;20399;-69
2022/02/22 12:43:10;;;;;;;7.33;4.70;;;10.50;99.90;;;;;;5052421;28;20768;-69